Canton, Georgia
Current Conditions -  °F | °C
As of 10:55 AM on Tuesday 21 Oct 2014 (Local Time) from KCNI Reporting Station
Clear Clear  
Wind Chill: 63°   Ceiling: Unl
Heat Index: 63°   Visibility: 10mi
Dew Point: 46°   Wind: 5mph
Humidity: 55%   Direction: 290°WNW
Pressure: 30.05"   Gusts: NA
Location:  34.25°N, 84.49°W
Report Text: KCNI 211455Z AUTO 29004KT 10SM CLR 17/08 A3005 RMK AO2
Loading
Personal Weather Stations






























Interactive Weather Map New forecast layout! Learn more

10-Day Weather Forecast

Advertisements
Track Severe Weather on mobile